Time;durP1;ratioP1;P1;durP2;ratioP2;P2;SDS_P1;SDS_P2;PMS_P1;PMS_P2;Temp;Humidity;BMP_temperature;BMP_pressure;BME280_temperature;BME280_humidity;BME280_pressure;Samples;Min_cycle;Max_cycle;Signal;HPM_P1;HPM_P2
2022/05/11 00:01:00;;;;;;;;;5.00;5.00;;;;;21.91;43.69;101118.91;5060402;28;45439;-84
2022/05/11 00:03:25;;;;;;;;;7.33;5.00;;;;;21.99;43.32;101141.81;5059311;28;45508;-84
2022/05/11 00:05:51;;;;;;;;;5.00;5.00;;;;;21.89;43.52;101122.72;5064179;28;45509;-84
2022/05/11 00:08:17;;;;;;;;;3.67;3.00;;;;;22.02;43.30;101142.41;5075560;28;45500;-85
2022/05/11 00:10:42;;;;;;;;;4.33;3.00;;;;;22.01;43.77;101154.28;5058480;28;45424;-84
2022/05/11 00:13:08;;;;;;;;;4.33;3.00;;;;;21.85;43.40;101126.72;5058472;28;45459;-84
2022/05/11 00:15:34;;;;;;;;;5.00;4.00;;;;;21.96;43.85;101142.94;5058210;28;46307;-84
2022/05/11 00:18:01;;;;;;;;;7.00;6.00;;;;;21.82;43.86;101122.41;5058068;28;45338;-84
2022/05/11 00:20:26;;;;;;;;;4.67;4.00;;;;;21.91;43.99;101145.16;5058474;28;45370;-84
2022/05/11 00:22:57;;;;;;;;;4.33;4.33;;;;;21.88;44.02;101140.00;5058725;28;45358;-84
2022/05/11 00:25:26;;;;;;;;;3.00;3.00;;;;;21.86;44.02;101139.28;5057966;28;46375;-84
2022/05/11 00:27:54;;;;;;;;;5.67;5.00;;;;;21.82;43.76;101141.41;5058328;28;45641;-84
2022/05/11 00:30:20;;;;;;;;;8.00;6.67;;;;;21.68;44.07;101123.59;5057849;28;45500;-84
2022/05/11 00:32:46;;;;;;;;;6.00;6.00;;;;;21.76;44.07;101125.63;5058464;28;45424;-84
2022/05/11 00:35:11;;;;;;;;;6.67;6.33;;;;;21.73;43.92;101131.34;5057736;28;45976;-84
2022/05/11 00:37:37;;;;;;;;;3.33;3.00;;;;;21.68;43.89;101129.00;5058156;28;45366;-84
2022/05/11 00:40:03;;;;;;;;;3.00;3.00;;;;;21.61;43.94;101113.34;5058388;28;45376;-84
2022/05/11 00:42:30;;;;;;;;;7.00;2.67;;;;;21.55;44.17;101103.91;5058064;28;45631;-84
2022/05/11 00:44:56;;;;;;;;;2.00;2.00;;;;;21.53;44.03;101096.88;5056817;28;45417;-84
2022/05/11 00:47:59;;;;;;;;;5.00;3.00;;;;;21.61;43.53;101103.38;5062385;28;45275;-84
2022/05/11 00:50:30;;;;;;;;;1.67;1.67;;;;;21.52;44.40;101087.91;5015531;28;45497;-84
2022/05/11 00:53:09;;;;;;;;;3.67;2.00;;;;;21.60;43.71;101106.22;5015693;28;45396;-84
2022/05/11 00:55:40;;;;;;;;;3.67;3.67;;;;;21.57;43.94;101099.22;5015549;28;45430;-84
2022/05/11 00:58:11;;;;;;;;;2.67;2.67;;;;;21.55;44.28;101103.91;4998821;28;45513;-84
2022/05/11 01:00:37;;;;;;;;;2.33;2.33;;;;;21.51;44.17;101094.28;5015062;28;45314;-84
2022/05/11 01:03:09;;;;;;;;;2.00;2.00;;;;;21.51;43.93;101086.16;5015710;28;45620;-84
2022/05/11 01:05:34;;;;;;;;;4.00;4.00;;;;;21.49;44.55;101085.41;5015071;28;45441;-84
2022/05/11 01:08:00;;;;;;;;;3.00;1.67;;;;;21.41;44.63;101069.81;5015146;28;45388;-84
2022/05/11 01:10:28;;;;;;;;;2.00;2.00;;;;;21.45;44.68;101084.81;5015201;28;45405;-84
2022/05/11 01:12:58;;;;;;;;;2.00;2.00;;;;;21.43;44.36;101081.38;5015319;28;46048;-84
2022/05/11 01:15:25;;;;;;;;;3.00;3.00;;;;;21.35;44.35;101070.28;5014463;28;47281;-84
2022/05/11 01:17:52;;;;;;;;;3.00;3.00;;;;;21.40;44.52;101076.22;5014530;28;46154;-78
2022/05/11 01:20:20;;;;;;;;;3.67;2.67;;;;;21.19;44.88;101046.31;5014406;28;45366;-78
2022/05/11 01:23:41;;;;;;;;;2.00;2.00;;;;;21.32;44.49;101069.69;5014739;28;45569;-79
2022/05/11 01:26:06;;;;;;;;;3.00;3.00;;;;;21.27;45.19;101064.66;4966302;28;47212;-79
2022/05/11 01:28:31;;;;;;;;;3.00;3.00;;;;;21.12;45.28;101052.34;4974652;28;45617;-78
2022/05/11 01:31:04;;;;;;;;;3.00;3.00;;;;;21.17;45.46;101061.00;4958731;28;45468;-78
2022/05/11 01:33:31;;;;;;;;;3.00;1.67;;;;;21.11;45.16;101056.94;4963819;28;45654;-78
2022/05/11 01:36:18;;;;;;;;;5.67;4.00;;;;;21.05;45.37;101057.47;4955390;28;45502;-84
2022/05/11 01:38:47;;;;;;;;;3.33;3.33;;;;;21.02;45.78;101060.41;4955544;28;45562;-83
2022/05/11 01:41:22;;;;;;;;;4.00;4.00;;;;;20.96;45.92;101048.22;4955742;28;45502;-84
2022/05/11 01:43:48;;;;;;;;;2.00;2.00;;;;;21.02;45.94;101057.69;4974109;28;45537;-84
2022/05/11 01:46:14;;;;;;;;;5.00;3.00;;;;;21.02;45.74;101061.25;4961691;28;47369;-79
2022/05/11 01:49:03;;;;;;;;;4.00;4.00;;;;;20.00;45.32;100902.63;4937082;28;45483;-79
2022/05/11 01:52:07;;;;;;;;;3.00;3.00;;;;;20.71;45.71;101019.56;4946944;28;45684;-79
2022/05/11 01:54:32;;;;;;;;;3.00;3.00;;;;;20.96;45.89;101067.19;4951684;28;45785;-79
2022/05/11 01:56:59;;;;;;;;;3.00;3.00;;;;;20.98;45.53;101067.09;4953135;28;46327;-79
2022/05/11 01:59:25;;;;;;;;;2.00;2.00;;;;;20.82;45.38;101040.38;4976065;28;45677;-78
2022/05/11 02:01:50;;;;;;;;;2.33;1.33;;;;;20.81;46.19;101050.38;5037545;28;45944;-79
2022/05/11 02:09:44;;;;;;;;;4.00;3.00;;;;;20.76;46.19;101055.28;5055626;28;45362;-84
2022/05/11 02:12:10;;;;;;;;;2.33;2.33;;;;;20.69;46.55;101035.09;5049545;28;45324;-84
2022/05/11 02:14:36;;;;;;;;;2.00;2.00;;;;;20.74;46.51;101046.41;5057217;28;45309;-84
2022/05/11 02:17:02;;;;;;;;;2.00;2.00;;;;;20.71;46.90;101049.38;5062223;28;45381;-84
2022/05/11 02:19:29;;;;;;;;;2.00;2.00;;;;;20.53;46.92;101023.75;5073412;28;45364;-84
2022/05/11 02:21:54;;;;;;;;;2.00;2.00;;;;;20.58;46.87;101030.56;5072136;28;45336;-84
2022/05/11 02:24:19;;;;;;;;;1.00;1.00;;;;;20.39;47.19;101012.22;5064418;28;45330;-85
2022/05/11 02:26:45;;;;;;;;;3.00;2.00;;;;;20.58;47.31;101038.69;5075735;28;46000;-84
2022/05/11 02:29:11;;;;;;;;;1.33;1.33;;;;;20.57;47.26;101039.66;5057855;28;54813;-84
2022/05/11 02:31:36;;;;;;;;;4.00;2.00;;;;;20.51;47.08;101036.56;5074319;28;45527;-84
2022/05/11 02:34:05;;;;;;;;;5.00;1.67;;;;;20.44;46.96;101036.22;5051972;28;45317;-84
2022/05/11 02:36:32;;;;;;;;;3.33;3.33;;;;;20.42;47.21;101030.06;5045103;28;46600;-85
2022/05/11 02:38:58;;;;;;;;;1.33;1.33;;;;;20.35;47.59;101026.13;5055976;28;45559;-84
2022/05/11 02:41:23;;;;;;;;;4.00;4.00;;;;;20.30;47.25;101020.19;5070781;28;45503;-84
2022/05/11 02:43:48;;;;;;;;;4.00;3.00;;;;;20.35;47.18;101035.09;5056474;28;45395;-84
2022/05/11 02:46:14;;;;;;;;;2.67;2.00;;;;;20.32;48.04;101035.34;5056611;28;45920;-84
2022/05/11 02:48:39;;;;;;;;;2.00;2.00;;;;;20.30;47.80;101023.78;5057567;28;45406;-84
2022/05/11 02:51:05;;;;;;;;;2.67;2.67;;;;;20.29;48.28;101027.47;5076843;28;45430;-84
2022/05/11 02:53:32;;;;;;;;;3.00;2.00;;;;;20.27;47.74;101029.44;5058508;28;45867;-85
2022/05/11 02:55:57;;;;;;;;;3.33;2.00;;;;;20.23;48.23;101026.13;5057476;28;45327;-85
2022/05/11 02:58:26;;;;;;;;;3.33;2.33;;;;;20.20;48.42;101022.78;5055788;28;45355;-79
2022/05/11 03:00:52;;;;;;;;;3.00;3.00;;;;;20.23;48.04;101020.69;5055621;28;45436;-84
2022/05/11 03:03:19;;;;;;;;;4.00;4.00;;;;;20.04;47.87;100996.06;5056508;28;45385;-84
2022/05/11 03:05:47;;;;;;;;;4.00;2.00;;;;;20.09;48.46;101006.53;5055365;28;46752;-83
2022/05/11 03:08:12;;;;;;;;;5.00;3.00;;;;;20.14;48.60;101026.00;5056944;28;45588;-83
2022/05/11 03:10:39;;;;;;;;;4.00;3.00;;;;;20.15;48.36;101033.13;5058926;28;45302;-83
2022/05/11 03:13:05;;;;;;;;;3.33;3.33;;;;;20.12;48.66;101034.22;5060073;28;45299;-83
2022/05/11 03:15:31;;;;;;;;;5.00;5.00;;;;;20.01;48.37;101016.13;5059097;28;47309;-83
2022/05/11 03:17:58;;;;;;;;;10.67;7.33;;;;;20.07;48.98;101019.34;5059135;28;45405;-84
2022/05/11 03:20:25;;;;;;;;;8.33;8.33;;;;;19.98;49.32;101012.81;5069048;27;45417;-84
2022/05/11 03:22:51;;;;;;;;;17.00;12.33;;;;;20.06;49.35;101023.88;5079521;28;45527;-84
2022/05/11 03:25:17;;;;;;;;;6.67;2.33;;;;;20.07;49.50;101022.06;5079093;28;46464;-84
2022/05/11 03:27:43;;;;;;;;;6.33;6.33;;;;;20.05;49.74;101024.03;5079307;28;45182;-84
2022/05/11 03:30:09;;;;;;;;;7.00;7.00;;;;;20.00;50.15;101021.69;5079761;28;45259;-85
2022/05/11 03:35:19;;;;;;;;;6.00;5.33;;;;;19.98;49.62;101027.19;5079399;28;45916;-84
2022/05/11 03:37:45;;;;;;;;;6.67;6.00;;;;;19.74;50.23;100988.56;5078811;28;45290;-84
2022/05/11 03:40:12;;;;;;;;;4.00;4.00;;;;;19.84;50.74;101008.50;5078807;28;45431;-78
2022/05/11 03:42:38;;;;;;;;;5.67;5.67;;;;;19.90;50.08;101017.94;5067237;28;45526;-78
2022/05/11 03:45:15;;;;;;;;;8.00;5.00;;;;;19.85;50.72;101021.00;5058183;28;45478;-78
2022/05/11 03:47:40;;;;;;;;;6.00;5.00;;;;;19.78;50.91;101014.38;5058313;28;45358;-84
2022/05/11 03:50:07;;;;;;;;;5.33;5.00;;;;;19.80;50.76;101021.38;5059110;28;45326;-84
2022/05/11 03:52:33;;;;;;;;;4.00;4.00;;;;;19.73;50.68;101016.56;5059388;28;45276;-84
2022/05/11 03:54:59;;;;;;;;;4.67;4.67;;;;;19.75;50.89;101020.88;5058358;28;45213;-84
2022/05/11 03:57:24;;;;;;;;;5.67;5.67;;;;;19.69;50.89;101015.97;5058618;28;45413;-84
2022/05/11 03:59:50;;;;;;;;;2.00;2.00;;;;;19.72;50.71;101022.97;5060760;28;45613;-84
2022/05/11 04:02:15;;;;;;;;;6.67;6.33;;;;;19.57;50.70;101009.63;5079469;28;45352;-84
2022/05/11 04:04:40;;;;;;;;;10.00;9.00;;;;;19.65;51.15;101027.97;5078446;28;46150;-84
2022/05/11 04:07:06;;;;;;;;;9.67;8.00;;;;;19.50;51.23;101002.97;5078416;28;52645;-83
2022/05/11 04:09:31;;;;;;;;;10.67;10.33;;;;;19.59;51.02;101026.56;5078957;28;45558;-84
2022/05/11 04:11:57;;;;;;;;;15.33;8.33;;;;;19.54;51.20;101025.22;5078641;28;45496;-84
2022/05/11 04:14:22;;;;;;;;;8.00;8.00;;;;;19.57;50.95;101030.38;5078726;28;46193;-84
2022/05/11 04:16:54;;;;;;;;;11.67;9.00;;;;;19.57;50.92;101031.28;5078209;28;45607;-83
2022/05/11 04:19:19;;;;;;;;;9.33;7.67;;;;;19.42;51.29;101012.66;5078338;28;45441;-83
2022/05/11 04:21:45;;;;;;;;;10.00;7.00;;;;;19.50;51.31;101031.84;5077797;28;46506;-83
2022/05/11 04:24:10;;;;;;;;;5.00;5.00;;;;;19.38;51.72;101017.41;5077972;28;46200;-78
2022/05/11 04:26:35;;;;;;;;;8.00;6.00;;;;;19.47;51.72;101040.19;5078084;27;46092;-78
2022/05/11 04:29:01;;;;;;;;;8.00;5.00;;;;;19.42;51.37;101037.84;5078140;28;45467;-79
2022/05/11 04:31:26;;;;;;;;;4.67;4.67;;;;;19.35;51.86;101025.78;5078342;28;45529;-78
2022/05/11 04:33:51;;;;;;;;;6.33;5.00;;;;;19.33;51.68;101025.88;5077421;28;45970;-78
2022/05/11 04:36:17;;;;;;;;;4.67;4.67;;;;;19.33;52.18;101031.28;5077575;28;45774;-79
2022/05/11 04:38:42;;;;;;;;;8.67;7.00;;;;;19.33;52.05;101031.28;5077685;28;45671;-79
2022/05/11 04:41:08;;;;;;;;;8.00;7.00;;;;;19.31;52.09;101032.38;5077811;28;45423;-79
2022/05/11 04:43:33;;;;;;;;;6.67;5.33;;;;;19.29;52.19;101028.94;5058025;28;45542;-78
2022/05/11 04:45:59;;;;;;;;;5.00;5.00;;;;;19.24;52.29;101023.88;5039154;28;45445;-78
2022/05/11 04:48:25;;;;;;;;;6.00;6.00;;;;;19.30;51.92;101030.66;5057647;28;45319;-78
2022/05/11 04:50:51;;;;;;;;;5.33;5.33;;;;;19.25;51.74;101028.31;5057250;28;45547;-79
2022/05/11 04:53:17;;;;;;;;;7.00;5.67;;;;;19.25;52.16;101025.63;5057275;28;45395;-78
2022/05/11 04:55:45;;;;;;;;;5.67;5.00;;;;;19.28;51.88;101033.47;5056980;28;45452;-79
2022/05/11 04:58:11;;;;;;;;;7.33;6.00;;;;;19.25;52.04;101032.88;5057205;28;45695;-78
2022/05/11 05:00:36;;;;;;;;;6.00;6.00;;;;;19.22;52.64;101028.53;5062732;28;45391;-78
2022/05/11 05:03:08;;;;;;;;;8.00;7.00;;;;;19.09;52.03;101014.25;5058580;28;48009;-79
2022/05/11 05:05:33;;;;;;;;;8.00;7.00;;;;;19.18;52.35;101027.06;5056194;28;45323;-84
2022/05/11 05:07:59;;;;;;;;;8.00;8.00;;;;;19.17;52.26;101033.41;5077984;28;45417;-84
2022/05/11 05:10:24;;;;;;;;;6.00;6.00;;;;;19.15;52.80;101036.25;5078333;28;45382;-84
2022/05/11 05:12:50;;;;;;;;;7.67;6.67;;;;;19.01;52.84;101001.31;5077658;28;45965;-84
2022/05/11 05:15:16;;;;;;;;;5.00;5.00;;;;;19.14;52.94;101034.50;5077218;28;45456;-84
2022/05/11 05:17:43;;;;;;;;;7.67;7.67;;;;;19.15;52.86;101035.38;5063706;28;45350;-84
2022/05/11 05:20:11;;;;;;;;;9.33;7.00;;;;;19.14;53.07;101026.41;5066634;28;45403;-84
2022/05/11 05:22:36;;;;;;;;;10.00;10.00;;;;;19.07;52.70;101018.88;5045574;28;48225;-84
2022/05/11 05:25:02;;;;;;;;;7.00;7.00;;;;;19.13;52.56;101031.94;5059593;28;45393;-84
2022/05/11 05:27:27;;;;;;;;;10.00;8.00;;;;;19.10;52.98;101026.75;5061966;28;45563;-84
2022/05/11 05:32:40;;;;;;;;;10.33;6.00;;;;;19.12;53.28;101017.56;5058808;28;45496;-83
2022/05/11 05:35:08;;;;;;;;;9.00;8.67;;;;;19.14;53.10;101031.81;5073551;28;45360;-84
2022/05/11 05:37:34;;;;;;;;;7.33;7.33;;;;;19.21;52.81;101040.31;5062134;27;45533;-81
2022/05/11 05:39:59;;;;;;;;;5.33;5.33;;;;;19.18;53.02;101024.34;5073421;28;45386;-82
2022/05/11 05:42:27;;;;;;;;;9.33;8.00;;;;;19.14;53.49;101028.25;5065467;28;45528;-81
2022/05/11 05:44:52;;;;;;;;;8.00;7.00;;;;;19.24;52.92;101033.81;5060691;28;45413;-85
2022/05/11 05:47:18;;;;;;;;;8.67;7.33;;;;;19.28;53.24;101040.72;5065387;28;45393;-83
2022/05/11 05:49:44;;;;;;;;;7.00;6.00;;;;;19.19;53.18;101018.81;5065928;28;45414;-83
2022/05/11 05:52:16;;;;;;;;;9.00;6.00;;;;;19.22;53.38;101019.56;5066029;28;45600;-84
2022/05/11 05:54:42;;;;;;;;;7.00;6.00;;;;;19.29;53.48;101032.53;5063133;28;45430;-83
2022/05/11 05:57:07;;;;;;;;;8.33;7.33;;;;;19.38;53.76;101047.16;5064422;28;45409;-84
2022/05/11 05:59:32;;;;;;;;;9.33;6.00;;;;;19.38;53.44;101036.34;5055437;28;45406;-84
2022/05/11 06:01:58;;;;;;;;;7.00;6.00;;;;;19.37;53.22;101035.47;5052880;28;53395;-78
2022/05/11 06:04:23;;;;;;;;;5.00;5.00;;;;;19.43;53.25;101049.50;5060519;28;45424;-78
2022/05/11 06:06:49;;;;;;;;;8.67;7.67;;;;;19.45;53.46;101044.84;5062017;28;45387;-78
2022/05/11 06:09:14;;;;;;;;;7.33;7.33;;;;;19.38;53.47;101023.69;5054942;28;45533;-78
2022/05/11 06:11:40;;;;;;;;;5.33;4.67;;;;;19.53;53.26;101045.13;5068678;28;46377;-78
2022/05/11 06:14:05;;;;;;;;;10.67;8.00;;;;;19.56;52.91;101042.19;5063319;28;45402;-78
2022/05/11 06:16:31;;;;;;;;;11.67;7.00;;;;;19.51;53.14;101028.16;5058418;28;45718;-78
2022/05/11 06:18:57;;;;;;;;;9.67;9.33;;;;;19.55;52.75;101018.81;5065455;28;45389;-77
2022/05/11 06:21:27;;;;;;;;;6.67;5.00;;;;;19.60;52.63;101022.06;5060138;28;45929;-77
2022/05/11 06:23:53;;;;;;;;;8.33;8.33;;;;;19.76;52.76;101032.56;5042710;28;45469;-76
2022/05/11 06:26:19;;;;;;;;;11.00;9.00;;;;;19.79;52.97;101037.75;5058107;28;45809;-76
2022/05/11 06:28:46;;;;;;;;;6.67;6.67;;;;;19.79;52.72;101035.91;5055930;28;45651;-77
2022/05/11 06:31:14;;;;;;;;;9.67;7.33;;;;;19.86;52.75;101038.13;5064125;27;45517;-78
2022/05/11 06:33:39;;;;;;;;;9.00;6.00;;;;;19.91;52.59;101041.34;5059747;28;45457;-78
2022/05/11 06:36:07;;;;;;;;;8.33;8.00;;;;;19.78;52.59;101015.25;5063237;28;45509;-78
2022/05/11 06:38:34;;;;;;;;;7.00;7.00;;;;;19.96;52.52;101037.28;5055637;28;45545;-78
2022/05/11 06:41:07;;;;;;;;;10.33;9.00;;;;;19.92;52.30;101027.66;5061728;28;45864;-79
2022/05/11 06:43:32;;;;;;;;;8.00;8.00;;;;;19.85;52.46;101004.78;5064378;28;45488;-79
2022/05/11 06:45:58;;;;;;;;;7.00;6.67;;;;;20.08;51.89;101040.84;5071786;28;45520;-84
2022/05/11 06:48:23;;;;;;;;;8.33;8.00;;;;;20.08;52.16;101023.75;5069618;28;45604;-87
2022/05/11 06:50:49;;;;;;;;;9.33;8.33;;;;;20.16;52.09;101037.56;5063200;28;45733;-90
2022/05/11 06:53:14;;;;;;;;;9.00;8.00;;;;;20.12;52.13;101017.13;5068306;28;45469;-90
2022/05/11 07:01:11;;;;;;;;;9.00;7.33;;;;;19.89;50.81;100954.88;5062440;28;45528;-87
2022/05/11 07:03:36;;;;;;;;;8.00;7.00;;;;;20.44;51.26;101041.63;5058459;28;45530;-87
2022/05/11 07:06:03;;;;;;;;;8.33;7.67;;;;;20.50;50.45;101034.84;5053253;28;45342;-85
2022/05/11 07:08:44;;;;;;;;;8.67;7.00;;;;;20.55;50.12;101025.34;5054261;28;45615;-86
2022/05/11 07:13:55;;;;;;;;;6.00;6.00;;;;;20.62;48.99;101029.31;5060924;28;45425;-87
2022/05/11 07:16:21;;;;;;;;;9.00;7.67;;;;;20.72;49.22;101031.28;5042012;28;45354;-84
2022/05/11 07:18:48;;;;;;;;;7.67;6.67;;;;;20.73;49.13;101027.59;5060200;28;45489;-86
2022/05/11 07:21:13;;;;;;;;;6.33;5.67;;;;;20.77;48.75;101029.06;5068320;28;45493;-84
2022/05/11 07:23:39;;;;;;;;;7.67;7.67;;;;;20.77;49.28;101037.19;5070216;28;45440;-84
2022/05/11 07:26:05;;;;;;;;;7.00;7.00;;;;;20.82;49.75;101033.09;5065283;28;45477;-84
2022/05/11 07:28:30;;;;;;;;;6.00;6.00;;;;;20.78;49.47;101020.78;5073726;28;45508;-85
2022/05/11 07:30:55;;;;;;;;;7.00;6.67;;;;;20.96;48.99;101026.56;5056017;28;46334;-84
2022/05/11 07:33:21;;;;;;;;;6.00;6.00;;;;;20.96;48.80;101026.56;5060677;28;45418;-86
2022/05/11 07:35:47;;;;;;;;;5.00;5.00;;;;;20.95;48.00;101015.81;5066626;28;45501;-85
2022/05/11 07:38:16;;;;;;;;;6.00;5.33;;;;;21.09;48.12;101029.09;5059243;28;45860;-85
2022/05/11 07:40:42;;;;;;;;;7.67;6.00;;;;;21.11;48.16;101031.69;5062196;28;46149;-85
2022/05/11 07:43:08;;;;;;;;;9.33;9.33;;;;;21.18;48.44;101025.59;5061515;28;45705;-84
2022/05/11 07:45:34;;;;;;;;;5.67;5.67;;;;;21.15;47.89;101031.28;5065366;28;45402;-86
2022/05/11 07:47:59;;;;;;;;;6.00;6.00;;;;;21.12;47.64;101007.16;5076137;28;45422;-89
2022/05/11 07:50:25;;;;;;;;;7.67;6.33;;;;;20.93;47.64;100974.44;5058443;28;47224;-89
2022/05/11 07:52:50;;;;;;;;;7.00;6.00;;;;;21.17;47.95;101009.50;5073130;28;45208;-89
2022/05/11 07:55:17;;;;;;;;;7.00;5.33;;;;;21.07;47.81;100984.97;5045370;28;45430;-90
2022/05/11 08:00:28;;;;;;;;;8.67;7.00;;;;;21.26;47.93;100989.75;5049479;28;45837;-90
2022/05/11 08:02:53;;;;;;;;;7.67;6.00;;;;;21.25;47.60;100974.44;5055721;28;45819;-89
2022/05/11 08:05:20;;;;;;;;;3.00;3.00;;;;;21.50;46.85;101016.63;5054971;28;45417;-89
2022/05/11 08:07:48;;;;;;;;;13.00;10.00;;;;;21.71;46.92;101027.50;5053031;28;45512;-90
2022/05/11 08:10:18;;;;;;;;;5.00;5.00;;;;;21.82;46.93;101031.97;5058379;28;47449;-89
2022/05/11 08:12:43;;;;;;;;;6.00;5.00;;;;;21.63;46.95;100982.06;5057303;28;45681;-89
2022/05/11 08:15:09;;;;;;;;;4.33;4.33;;;;;21.64;45.75;100974.75;5048506;28;45375;-89
2022/05/11 08:17:36;;;;;;;;;5.00;5.00;;;;;21.26;45.95;100916.53;5059839;28;45443;-90
2022/05/11 08:20:07;;;;;;;;;4.33;4.00;;;;;22.01;45.18;101018.53;5049239;28;48132;-83
2022/05/11 08:22:36;;;;;;;;;5.00;5.00;;;;;22.07;46.23;101014.41;5041776;28;45437;-82
2022/05/11 08:25:02;;;;;;;;;3.67;3.00;;;;;22.12;44.15;101010.31;5041004;28;45459;-79
2022/05/11 08:27:28;;;;;;;;;3.33;3.33;;;;;22.12;44.25;101006.72;5061902;28;45503;-78
2022/05/11 08:35:22;;;;;;;;;3.00;3.00;;;;;22.39;43.36;101008.88;5065996;28;45555;-79
2022/05/11 08:37:48;;;;;;;;;3.00;3.00;;;;;22.58;42.13;101018.94;5065473;27;45500;-79
2022/05/11 08:40:31;;;;;;;;;4.33;4.33;;;;;22.92;41.70;101015.88;5052856;28;45445;-79
2022/05/11 08:42:56;;;;;;;;;2.67;2.67;;;;;23.33;40.76;101008.50;5062829;28;45540;-79
2022/05/11 08:45:30;;;;;;;;;3.00;3.00;;;;;24.09;40.60;101016.72;5063027;28;45918;-80
2022/05/11 08:47:56;;;;;;;;;2.00;2.00;;;;;24.83;38.12;101023.97;5063019;28;45565;-79
2022/05/11 08:50:26;;;;;;;;;3.33;3.33;;;;;25.53;38.55;101012.41;5053830;28;46079;-79
2022/05/11 08:53:26;;;;;;;;;4.00;2.33;;;;;26.54;38.55;101000.97;5048385;28;45541;-79
2022/05/11 08:55:55;;;;;;;;;2.00;2.00;;;;;27.23;34.83;100985.25;5055073;28;45609;-82
2022/05/11 08:58:28;;;;;;;;;3.00;3.00;;;;;28.07;36.33;100999.56;5061836;28;46309;-83
2022/05/11 09:00:56;;;;;;;;;4.67;4.67;;;;;28.88;35.00;101007.66;5042465;28;48506;-82
2022/05/11 09:03:31;;;;;;;;;3.00;3.00;;;;;29.58;33.40;101013.00;5040075;28;45530;-83
2022/05/11 09:06:02;;;;;;;;;3.00;3.00;;;;;30.13;32.34;100988.09;5066566;28;45527;-83
2022/05/11 09:08:34;;;;;;;;;5.00;5.00;;;;;30.71;31.50;100992.69;5057221;28;45451;-83
2022/05/11 09:11:00;;;;;;;;;3.00;2.67;;;;;31.19;29.47;100983.06;5062403;28;46789;-83
2022/05/11 09:13:27;;;;;;;;;3.33;3.33;;;;;31.62;29.77;100985.84;5065692;27;45203;-82
2022/05/11 09:15:55;;;;;;;;;4.00;3.00;;;;;32.13;30.43;100983.69;5064002;28;45442;-83
2022/05/11 09:18:29;;;;;;;;;1.67;1.67;;;;;32.64;28.52;100988.00;5056931;28;45485;-83
2022/05/11 09:20:55;;;;;;;;;2.00;2.00;;;;;33.02;27.69;100968.13;5057852;28;45462;-83
2022/05/11 09:24:02;;;;;;;;;4.00;3.00;;;;;33.63;26.47;100970.75;5044194;28;45414;-83
2022/05/11 09:26:34;;;;;;;;;1.67;1.67;;;;;34.03;27.21;100950.47;5054262;28;46420;-83
2022/05/11 09:29:37;;;;;;;;;3.33;2.33;;;;;34.89;26.01;100994.47;5052003;28;45935;-82
2022/05/11 09:32:24;;;;;;;;;3.00;3.00;;;;;35.34;25.44;100984.41;4976969;28;47292;-82
2022/05/11 09:34:50;;;;;;;;;3.00;3.00;;;;;35.76;25.19;100987.50;5005980;28;45547;-82
2022/05/11 09:37:31;;;;;;;;;1.00;1.00;;;;;36.39;24.01;100986.41;5000370;28;45583;-82
2022/05/11 09:40:08;;;;;;;;;1.33;1.33;;;;;36.78;22.36;100993.38;5003088;28;45996;-82
2022/05/11 09:42:33;;;;;;;;;2.33;2.33;;;;;37.02;22.46;100986.00;4994309;28;46796;-82
2022/05/11 09:45:01;;;;;;;;;1.00;1.00;;;;;37.08;22.10;100968.38;4983918;28;45483;-82
2022/05/11 09:47:31;;;;;;;;;2.67;1.67;;;;;37.36;21.64;100987.19;5006095;28;45495;-82
2022/05/11 09:50:22;;;;;;;;;1.67;1.67;;;;;37.32;22.33;100983.22;4984962;28;45583;-83
2022/05/11 09:52:48;;;;;;;;;2.33;2.00;;;;;37.39;22.08;100953.34;5005676;28;46136;-82
2022/05/11 09:55:23;;;;;;;;;1.67;1.67;;;;;37.63;21.83;100972.00;4999290;28;45423;-83
2022/05/11 09:58:00;;;;;;;;;1.67;1.67;;;;;37.63;22.06;100920.03;4984968;28;45466;-83
2022/05/11 10:00:38;;;;;;;;;1.67;1.67;;;;;38.54;21.80;100967.72;5002403;28;45556;-83
2022/05/11 10:03:08;;;;;;;;;4.33;2.00;;;;;38.83;20.36;100940.66;5004025;28;46069;-85
2022/05/11 10:05:40;;;;;;;;;1.00;1.00;;;;;39.65;19.23;100975.59;5018679;28;45500;-83
2022/05/11 10:08:34;;;;;;;;;1.67;1.00;;;;;40.24;19.58;100963.03;5059304;28;45511;-83
2022/05/11 10:11:02;;;;;;;;;1.33;1.33;;;;;41.07;17.29;100955.38;5062848;28;45453;-83
2022/05/11 10:13:35;;;;;;;;;2.33;1.00;;;;;42.09;17.17;100983.31;5069863;28;45442;-83
2022/05/11 10:21:56;;;;;;;;;2.67;1.33;;;;;44.36;14.30;100988.06;5063908;28;45949;-84
2022/05/11 10:24:40;;;;;;;;;1.00;1.00;;;;;44.61;14.47;100933.69;5061052;28;46646;-82
2022/05/11 10:27:23;;;;;;;;;1.00;1.00;;;;;45.69;14.24;100973.13;5061178;28;45447;-83
2022/05/11 10:30:08;;;;;;;;;2.33;2.33;;;;;46.55;13.54;100984.53;5057204;28;45658;-83
2022/05/11 10:32:45;;;;;;;;;1.67;1.67;;;;;47.03;12.55;100983.56;5064848;28;45516;-83
2022/05/11 10:35:20;;;;;;;;;0.67;0.67;;;;;46.97;12.23;100933.97;5050103;28;46918;-83
2022/05/11 10:37:46;;;;;;;;;1.33;1.33;;;;;47.41;11.59;100939.16;5044722;28;45947;-83
2022/05/11 10:40:26;;;;;;;;;1.67;1.67;;;;;47.72;12.48;100958.38;5069558;28;45492;-83
2022/05/11 10:43:08;;;;;;;;;1.67;1.33;;;;;48.20;11.77;100956.00;5045914;28;45815;-83
2022/05/11 10:46:05;;;;;;;;;2.00;1.33;;;;;48.20;11.61;100916.41;5052562;28;48148;-84
2022/05/11 10:48:52;;;;;;;;;0.67;0.33;;;;;48.38;11.66;100974.03;5044058;28;45660;-83
2022/05/11 10:51:38;;;;;;;;;2.00;2.00;;;;;48.18;11.73;100906.56;5045651;28;46559;-84
2022/05/11 10:54:36;;;;;;;;;1.33;1.33;;;;;48.14;11.48;100945.09;5064813;28;45605;-83
2022/05/11 10:57:27;;;;;;;;;0.00;0.00;;;;;47.87;12.15;100907.25;5041065;28;46601;-84
2022/05/11 11:00:15;;;;;;;;;1.00;1.00;;;;;48.00;11.79;100925.31;5044793;28;45615;-84
2022/05/11 11:02:56;;;;;;;;;0.67;0.67;;;;;48.05;11.79;100955.47;5047983;28;45451;-84
2022/05/11 11:05:27;;;;;;;;;2.00;2.00;;;;;47.09;12.58;100949.28;5046117;28;45515;-83
2022/05/11 11:08:21;;;;;;;;;0.67;0.67;;;;;44.90;13.23;100947.84;5043004;28;47764;-82
2022/05/11 11:10:57;;;;;;;;;0.67;0.00;;;;;41.94;15.08;100930.00;5057505;28;45496;-82
2022/05/11 11:13:32;;;;;;;;;2.00;2.00;;;;;39.17;17.16;100912.88;5061573;28;45410;-86
2022/05/11 11:15:58;;;;;;;;;2.00;2.00;;;;;37.43;19.09;100942.59;5071870;28;45521;-83
2022/05/11 11:18:46;;;;;;;;;3.00;1.33;;;;;35.98;20.41;100902.72;5072696;28;45557;-82
2022/05/11 11:21:13;;;;;;;;;3.00;1.33;;;;;35.56;21.13;100927.47;5066118;28;45382;-82
2022/05/11 11:23:41;;;;;;;;;1.00;1.00;;;;;35.17;21.49;100917.56;5061494;28;45819;-87
2022/05/11 11:26:12;;;;;;;;;1.33;1.33;;;;;34.83;22.49;100917.78;5056970;28;45453;-87
2022/05/11 11:28:40;;;;;;;;;2.00;2.00;;;;;34.61;22.73;100952.47;5073432;28;45406;-86
2022/05/11 11:31:14;;;;;;;;;1.00;0.00;;;;;34.37;22.77;100937.41;5070382;28;45485;-86
2022/05/11 11:34:04;;;;;;;;;2.00;0.67;;;;;34.25;22.76;100940.00;5074335;28;45445;-86
2022/05/11 11:36:38;;;;;;;;;1.67;1.67;;;;;34.09;23.21;100929.38;5073198;28;45433;-86
2022/05/11 11:39:07;;;;;;;;;2.33;1.67;;;;;33.89;22.92;100922.00;5065503;28;45555;-86
2022/05/11 11:42:03;;;;;;;;;1.00;1.00;;;;;33.71;23.71;100936.50;5063850;28;45410;-86
2022/05/11 11:44:46;;;;;;;;;1.00;1.00;;;;;33.25;23.23;100882.13;5060489;28;45489;-86
2022/05/11 11:47:25;;;;;;;;;2.00;2.00;;;;;33.36;23.82;100942.22;5073342;28;45423;-81
2022/05/11 11:49:52;;;;;;;;;1.67;1.67;;;;;32.93;23.99;100903.09;5049697;28;47387;-82
2022/05/11 11:52:38;;;;;;;;;1.67;1.67;;;;;32.59;24.79;100869.94;5071542;28;45424;-81
2022/05/11 11:55:23;;;;;;;;;4.33;1.00;;;;;32.71;24.64;100907.94;5071337;28;45460;-81
2022/05/11 11:57:56;;;;;;;;;2.00;2.00;;;;;32.55;24.70;100893.47;5062761;28;45426;-81
2022/05/11 12:00:52;;;;;;;;;2.67;1.00;;;;;32.66;25.05;100925.13;5059692;28;46405;-82
2022/05/11 12:03:24;;;;;;;;;1.67;1.67;;;;;32.48;24.77;100900.84;5054161;28;45421;-82
2022/05/11 12:15:01;;;;;;;;;1.00;1.00;;;;;32.51;24.79;100929.97;5050926;28;45628;-81
2022/05/11 12:17:05;;;;;;;;;1.33;1.33;;;;;31.79;25.31;100901.78;5057714;28;46053;-83
2022/05/11 12:19:34;;;;;;;;;2.00;2.00;;;;;31.84;25.48;100914.94;5059090;28;45436;-83